Time;durP1;ratioP1;P1;durP2;ratioP2;P2;SDS_P1;SDS_P2;PMS_P1;PMS_P2;Temp;Humidity;BMP_temperature;BMP_pressure;BME280_temperature;BME280_humidity;BME280_pressure;Samples;Min_cycle;Max_cycle;Signal;HPM_P1;HPM_P2
2022/04/09 00:02:17;;;;;;;1.15;1.00;;;;;;;18.90;43.16;98962.16;;;;-52
2022/04/09 00:05:17;;;;;;;1.10;1.10;;;;;;;18.90;43.17;98974.43;;;;-47
2022/04/09 00:08:17;;;;;;;1.25;1.15;;;;;;;18.88;43.18;98986.86;;;;-58
2022/04/09 00:11:17;;;;;;;1.05;1.02;;;;;;;18.88;43.20;98990.43;;;;-60
2022/04/09 00:14:17;;;;;;;1.00;1.00;;;;;;;18.86;43.21;98995.98;;;;-60
2022/04/09 00:17:17;;;;;;;1.11;1.11;;;;;;;18.85;43.23;98998.94;;;;-53
2022/04/09 00:20:17;;;;;;;0.94;0.94;;;;;;;18.83;43.21;99001.63;;;;-47
2022/04/09 00:23:17;;;;;;;0.96;0.96;;;;;;;18.82;43.20;99007.83;;;;-49
2022/04/09 00:26:17;;;;;;;1.00;1.00;;;;;;;18.82;43.22;99010.09;;;;-51
2022/04/09 00:29:17;;;;;;;1.00;1.00;;;;;;;18.80;43.24;99013.30;;;;-51
2022/04/09 00:32:17;;;;;;;1.53;1.03;;;;;;;18.78;43.24;99029.60;;;;-53
2022/04/09 00:35:17;;;;;;;1.00;1.00;;;;;;;18.78;43.25;99048.37;;;;-59
2022/04/09 00:38:17;;;;;;;1.13;1.10;;;;;;;18.77;43.27;99062.73;;;;-51
2022/04/09 00:41:17;;;;;;;1.10;1.10;;;;;;;18.75;43.29;99074.59;;;;-50
2022/04/09 00:44:17;;;;;;;1.10;1.10;;;;;;;18.74;43.27;99087.36;;;;-48
2022/04/09 00:47:17;;;;;;;1.03;1.03;;;;;;;18.73;43.29;99099.78;;;;-47
2022/04/09 00:50:17;;;;;;;1.05;1.03;;;;;;;18.73;43.29;99122.41;;;;-59
2022/04/09 00:53:17;;;;;;;1.17;1.10;;;;;;;18.71;43.30;99138.43;;;;-59
2022/04/09 00:56:20;;;;;;;1.13;1.12;;;;;;;18.69;43.30;99156.60;;;;-59
2022/04/09 00:59:17;;;;;;;1.17;1.16;;;;;;;18.69;43.30;99163.03;;;;-53
2022/04/09 01:02:17;;;;;;;1.20;1.10;;;;;;;18.67;43.31;99165.66;;;;-50
2022/04/09 01:05:17;;;;;;;1.13;1.09;;;;;;;18.67;43.32;99187.07;;;;-50
2022/04/09 01:08:17;;;;;;;1.20;1.10;;;;;;;18.65;43.34;99196.67;;;;-47
2022/04/09 01:11:17;;;;;;;1.19;1.09;;;;;;;18.64;43.33;99210.56;;;;-47
2022/04/09 01:14:17;;;;;;;1.03;1.03;;;;;;;18.63;43.30;99220.53;;;;-51
2022/04/09 01:17:17;;;;;;;1.17;1.10;;;;;;;18.62;43.32;99225.42;;;;-51
2022/04/09 01:20:17;;;;;;;1.00;1.00;;;;;;;18.61;43.35;99235.25;;;;-52
2022/04/09 01:23:17;;;;;;;1.13;1.10;;;;;;;18.60;43.31;99245.74;;;;-51
2022/04/09 01:26:17;;;;;;;1.08;1.08;;;;;;;18.58;43.37;99257.68;;;;-51
2022/04/09 01:29:17;;;;;;;1.10;1.10;;;;;;;18.58;43.35;99269.03;;;;-60
2022/04/09 01:32:17;;;;;;;1.01;1.01;;;;;;;18.57;43.34;99275.38;;;;-59
2022/04/09 01:35:17;;;;;;;0.93;0.93;;;;;;;18.56;43.33;99283.00;;;;-59
2022/04/09 01:38:17;;;;;;;1.11;1.10;;;;;;;18.55;43.34;99290.48;;;;-48
2022/04/09 01:41:17;;;;;;;0.99;0.99;;;;;;;18.55;43.37;99295.98;;;;-47
2022/04/09 01:44:17;;;;;;;0.90;0.90;;;;;;;18.53;43.39;99309.87;;;;-51
2022/04/09 01:47:17;;;;;;;1.07;1.07;;;;;;;18.52;43.40;99316.55;;;;-52
2022/04/09 01:50:17;;;;;;;1.85;0.95;;;;;;;18.51;43.40;99322.88;;;;-53
2022/04/09 01:53:17;;;;;;;1.20;1.12;;;;;;;18.50;43.38;99332.06;;;;-50
2022/04/09 01:56:17;;;;;;;1.02;0.90;;;;;;;18.50;43.38;99338.22;;;;-59
2022/04/09 01:59:17;;;;;;;1.01;1.01;;;;;;;18.49;43.41;99348.84;;;;-60
2022/04/09 02:02:17;;;;;;;1.00;1.00;;;;;;;18.48;43.39;99352.75;;;;-60
2022/04/09 02:05:17;;;;;;;1.00;1.00;;;;;;;18.47;43.39;99362.09;;;;-59
2022/04/09 02:08:17;;;;;;;1.29;1.01;;;;;;;18.46;43.40;99376.37;;;;-58
2022/04/09 02:11:16;;;;;;;1.41;1.00;;;;;;;18.45;43.38;99385.30;;;;-59
2022/04/09 02:14:17;;;;;;;1.00;1.00;;;;;;;18.44;43.44;99390.09;;;;-59
2022/04/09 02:17:17;;;;;;;1.00;1.00;;;;;;;18.44;43.41;99401.69;;;;-58
2022/04/09 02:20:17;;;;;;;1.03;1.02;;;;;;;18.42;43.45;99402.02;;;;-59
2022/04/09 02:23:17;;;;;;;0.99;0.99;;;;;;;18.42;43.41;99410.72;;;;-60
2022/04/09 02:26:17;;;;;;;1.14;1.10;;;;;;;18.41;43.44;99415.52;;;;-59
2022/04/09 02:29:17;;;;;;;0.99;0.99;;;;;;;18.39;43.44;99421.52;;;;-58
2022/04/09 02:32:17;;;;;;;1.17;1.10;;;;;;;18.39;43.44;99428.25;;;;-60
2022/04/09 02:35:17;;;;;;;1.01;1.01;;;;;;;18.39;43.46;99443.92;;;;-58
2022/04/09 02:38:17;;;;;;;1.07;1.07;;;;;;;18.36;43.47;99451.48;;;;-59
2022/04/09 02:41:17;;;;;;;1.20;1.10;;;;;;;18.36;43.46;99462.18;;;;-48
2022/04/09 02:44:17;;;;;;;1.11;1.10;;;;;;;18.36;43.48;99479.03;;;;-53
2022/04/09 02:47:17;;;;;;;0.94;0.94;;;;;;;18.36;43.45;99489.17;;;;-60
2022/04/09 02:50:18;;;;;;;1.00;1.00;;;;;;;18.35;43.48;99493.73;;;;-51
2022/04/09 02:53:16;;;;;;;0.86;0.86;;;;;;;18.33;43.47;99497.72;;;;-51
2022/04/09 02:56:17;;;;;;;1.00;1.00;;;;;;;18.32;43.49;99505.33;;;;-53
2022/04/09 02:59:17;;;;;;;1.01;1.00;;;;;;;18.31;43.49;99504.14;;;;-53
2022/04/09 03:02:17;;;;;;;1.23;1.01;;;;;;;18.30;43.50;99510.60;;;;-54
2022/04/09 03:05:17;;;;;;;0.99;0.99;;;;;;;18.29;43.51;99515.25;;;;-53
2022/04/09 03:08:17;;;;;;;0.90;0.90;;;;;;;18.28;43.49;99521.31;;;;-53
2022/04/09 03:11:17;;;;;;;0.98;0.98;;;;;;;18.28;43.48;99534.40;;;;-51
2022/04/09 03:14:16;;;;;;;0.99;0.99;;;;;;;18.27;43.48;99545.42;;;;-48
2022/04/09 03:17:17;;;;;;;0.99;0.99;;;;;;;18.26;43.49;99549.41;;;;-48
2022/04/09 03:20:17;;;;;;;1.00;1.00;;;;;;;18.26;43.49;99557.49;;;;-60
2022/04/09 03:23:17;;;;;;;1.05;1.04;;;;;;;18.25;43.49;99567.32;;;;-53
2022/04/09 03:26:18;;;;;;;0.90;0.90;;;;;;;18.24;43.51;99572.50;;;;-59
2022/04/09 03:29:17;;;;;;;0.93;0.93;;;;;;;18.23;43.54;99584.28;;;;-59
2022/04/09 03:32:17;;;;;;;0.90;0.90;;;;;;;18.23;43.53;99593.94;;;;-59
2022/04/09 03:35:16;;;;;;;1.01;1.00;;;;;;;18.22;43.52;99598.72;;;;-61
2022/04/09 03:38:17;;;;;;;1.00;1.00;;;;;;;18.22;43.48;99610.14;;;;-59
2022/04/09 03:41:17;;;;;;;1.25;1.03;;;;;;;18.21;43.50;99617.45;;;;-50
2022/04/09 03:44:17;;;;;;;0.95;0.95;;;;;;;18.20;43.50;99623.22;;;;-48
2022/04/09 03:47:17;;;;;;;0.90;0.90;;;;;;;18.18;43.55;99623.38;;;;-52
2022/04/09 03:50:17;;;;;;;0.90;0.90;;;;;;;18.18;43.50;99634.17;;;;-53
2022/04/09 03:53:20;;;;;;;1.05;0.95;;;;;;;18.17;43.51;99640.55;;;;-53
2022/04/09 03:56:17;;;;;;;0.93;0.93;;;;;;;18.16;43.57;99646.17;;;;-53
2022/04/09 03:59:17;;;;;;;1.01;0.93;;;;;;;18.14;43.57;99649.09;;;;-54
2022/04/09 04:02:17;;;;;;;1.11;0.97;;;;;;;18.15;43.53;99658.33;;;;-54
2022/04/09 04:05:17;;;;;;;0.90;0.90;;;;;;;18.14;43.54;99664.66;;;;-52
2022/04/09 04:08:17;;;;;;;1.16;1.12;;;;;;;18.13;43.54;99670.41;;;;-53
2022/04/09 04:11:17;;;;;;;0.83;0.83;;;;;;;18.13;43.58;99670.25;;;;-49
2022/04/09 04:14:17;;;;;;;1.00;1.00;;;;;;;18.12;43.55;99665.08;;;;-48
2022/04/09 04:17:16;;;;;;;1.25;1.09;;;;;;;18.11;43.57;99678.76;;;;-48
2022/04/09 04:20:17;;;;;;;0.97;0.97;;;;;;;18.10;43.57;99683.97;;;;-47
2022/04/09 04:23:17;;;;;;;0.97;0.96;;;;;;;18.10;43.54;99698.39;;;;-48
2022/04/09 04:26:17;;;;;;;1.47;1.00;;;;;;;18.10;43.54;99704.48;;;;-48
2022/04/09 04:29:17;;;;;;;1.09;1.06;;;;;;;18.10;43.54;99710.55;;;;-48
2022/04/09 04:32:17;;;;;;;1.05;1.00;;;;;;;18.08;43.56;99715.34;;;;-48
2022/04/09 04:35:17;;;;;;;1.00;1.00;;;;;;;18.07;43.57;99725.72;;;;-49
2022/04/09 04:38:16;;;;;;;0.97;0.97;;;;;;;18.06;43.57;99729.44;;;;-48
2022/04/09 04:41:17;;;;;;;1.00;1.00;;;;;;;18.06;43.57;99730.02;;;;-48
2022/04/09 04:44:17;;;;;;;0.97;0.97;;;;;;;18.05;43.54;99735.51;;;;-47
2022/04/09 04:47:17;;;;;;;1.00;1.00;;;;;;;18.05;43.57;99740.86;;;;-48
2022/04/09 04:50:17;;;;;;;1.00;1.00;;;;;;;18.04;43.54;99743.70;;;;-48
2022/04/09 04:53:17;;;;;;;1.00;1.00;;;;;;;18.04;43.60;99749.63;;;;-48
2022/04/09 04:56:17;;;;;;;1.32;1.03;;;;;;;18.05;43.59;99755.78;;;;-48
2022/04/09 04:59:18;;;;;;;1.08;1.07;;;;;;;18.05;43.58;99762.74;;;;-48
2022/04/09 05:02:17;;;;;;;1.13;1.02;;;;;;;18.05;43.61;99771.83;;;;-48
2022/04/09 05:05:17;;;;;;;1.02;0.97;;;;;;;18.06;43.62;99783.11;;;;-48
2022/04/09 05:08:17;;;;;;;1.00;1.00;;;;;;;18.06;43.59;99786.68;;;;-49
2022/04/09 05:11:17;;;;;;;1.05;1.02;;;;;;;18.07;43.59;99788.37;;;;-48
2022/04/09 05:14:17;;;;;;;1.31;0.97;;;;;;;18.08;43.57;99789.20;;;;-53
2022/04/09 05:17:17;;;;;;;0.98;0.98;;;;;;;18.08;43.61;99786.52;;;;-53
2022/04/09 05:20:16;;;;;;;0.99;0.99;;;;;;;18.08;43.63;99797.87;;;;-50
2022/04/09 05:23:17;;;;;;;1.05;1.01;;;;;;;18.10;43.56;99806.63;;;;-50
2022/04/09 05:26:17;;;;;;;1.20;1.10;;;;;;;18.10;43.62;99820.50;;;;-51
2022/04/09 05:29:17;;;;;;;0.91;0.91;;;;;;;18.10;43.62;99825.61;;;;-51
2022/04/09 05:32:17;;;;;;;0.88;0.88;;;;;;;18.10;43.62;99837.61;;;;-57
2022/04/09 05:35:17;;;;;;;3.52;3.17;;;;;;;17.62;41.58;99838.58;;;;-56
2022/04/09 05:38:17;;;;;;;4.71;3.79;;;;;;;17.36;41.30;99844.28;;;;-50
2022/04/09 05:41:16;;;;;;;4.75;4.25;;;;;;;17.06;41.24;99846.87;;;;-52
2022/04/09 05:44:17;;;;;;;4.64;4.14;;;;;;;16.88;41.33;99846.17;;;;-52
2022/04/09 05:47:17;;;;;;;6.42;3.88;;;;;;;17.06;41.69;99853.27;;;;-52
2022/04/09 05:50:17;;;;;;;4.20;3.11;;;;;;;17.27;41.87;99860.02;;;;-51
2022/04/09 05:53:16;;;;;;;3.27;2.71;;;;;;;17.42;42.09;99868.84;;;;-52
2022/04/09 05:56:17;;;;;;;4.61;2.45;;;;;;;17.52;42.26;99874.81;;;;-55
2022/04/09 05:59:17;;;;;;;3.56;2.41;;;;;;;17.63;42.47;99885.96;;;;-58
2022/04/09 06:02:16;;;;;;;2.67;2.05;;;;;;;17.72;42.58;99895.09;;;;-58
2022/04/09 06:05:17;;;;;;;4.41;1.88;;;;;;;17.79;42.58;99896.09;;;;-61
2022/04/09 06:08:17;;;;;;;2.33;1.90;;;;;;;17.86;42.67;99903.99;;;;-60
2022/04/09 06:11:17;;;;;;;1.91;1.69;;;;;;;17.92;42.72;99909.70;;;;-57
2022/04/09 06:14:17;;;;;;;2.58;1.83;;;;;;;17.97;42.79;99911.41;;;;-58
2022/04/09 06:17:17;;;;;;;1.82;1.60;;;;;;;18.02;42.58;99915.33;;;;-53
2022/04/09 06:20:17;;;;;;;2.65;1.84;;;;;;;18.05;42.69;99918.17;;;;-52
2022/04/09 06:23:16;;;;;;;1.96;1.59;;;;;;;18.07;42.68;99929.23;;;;-48
2022/04/09 06:26:16;;;;;;;3.14;1.69;;;;;;;18.10;42.74;99934.99;;;;-53
2022/04/09 06:29:17;;;;;;;1.67;1.49;;;;;;;18.11;42.69;99944.55;;;;-53
2022/04/09 06:32:17;;;;;;;2.65;1.49;;;;;;;18.13;42.74;99949.25;;;;-52
2022/04/09 06:35:17;;;;;;;1.96;1.49;;;;;;;18.14;42.71;99954.30;;;;-53
2022/04/09 06:38:17;;;;;;;2.56;1.61;;;;;;;18.16;42.76;99961.53;;;;-48
2022/04/09 06:41:18;;;;;;;1.42;1.30;;;;;;;18.17;42.82;99966.95;;;;-48
2022/04/09 06:44:16;;;;;;;1.56;1.46;;;;;;;18.18;42.76;99976.22;;;;-53
2022/04/09 06:47:17;;;;;;;2.17;1.61;;;;;;;18.18;42.83;99983.02;;;;-51
2022/04/09 06:50:17;;;;;;;2.33;1.44;;;;;;;18.19;42.84;99987.48;;;;-51
2022/04/09 06:53:17;;;;;;;1.83;1.55;;;;;;;18.18;42.84;99991.95;;;;-51
2022/04/09 06:56:17;;;;;;;1.61;1.41;;;;;;;18.20;42.86;99994.53;;;;-51
2022/04/09 06:59:17;;;;;;;1.95;1.50;;;;;;;18.19;42.85;99993.16;;;;-51
2022/04/09 07:02:17;;;;;;;1.66;1.53;;;;;;;18.20;42.86;99998.17;;;;-51
2022/04/09 07:05:17;;;;;;;2.09;1.50;;;;;;;18.20;42.88;99998.04;;;;-59
2022/04/09 07:08:17;;;;;;;1.60;1.50;;;;;;;18.20;42.92;100002.56;;;;-59
2022/04/09 07:11:17;;;;;;;1.75;1.37;;;;;;;18.19;42.89;100004.83;;;;-60
2022/04/09 07:14:17;;;;;;;1.52;1.42;;;;;;;18.20;42.94;100004.91;;;;-59
2022/04/09 07:17:16;;;;;;;1.53;1.37;;;;;;;18.19;42.95;100007.76;;;;-52
2022/04/09 07:20:17;;;;;;;1.47;1.37;;;;;;;18.19;42.96;100009.87;;;;-51
2022/04/09 07:23:17;;;;;;;1.57;1.41;;;;;;;18.18;42.98;100011.73;;;;-51
2022/04/09 07:26:18;;;;;;;1.71;1.40;;;;;;;18.18;42.96;100016.49;;;;-51
2022/04/09 07:29:17;;;;;;;1.50;1.40;;;;;;;18.18;42.98;100020.71;;;;-51
2022/04/09 07:32:17;;;;;;;1.50;1.40;;;;;;;18.17;43.01;100024.20;;;;-51
2022/04/09 07:35:17;;;;;;;1.48;1.38;;;;;;;18.16;42.99;100027.30;;;;-52
2022/04/09 07:38:16;;;;;;;1.53;1.43;;;;;;;18.16;43.03;100025.51;;;;-51
2022/04/09 07:41:17;;;;;;;1.79;1.46;;;;;;;18.15;43.00;100028.25;;;;-51
2022/04/09 07:44:17;;;;;;;2.26;1.37;;;;;;;18.16;43.01;100034.59;;;;-51
2022/04/09 07:47:17;;;;;;;1.55;1.45;;;;;;;18.15;43.03;100033.84;;;;-51
2022/04/09 07:50:16;;;;;;;1.50;1.40;;;;;;;18.15;43.04;100036.04;;;;-51
2022/04/09 07:53:17;;;;;;;1.40;1.30;;;;;;;18.14;43.00;100041.07;;;;-51
2022/04/09 07:56:17;;;;;;;1.41;1.30;;;;;;;18.14;43.00;100042.21;;;;-51
2022/04/09 07:59:16;;;;;;;1.84;1.40;;;;;;;18.14;43.04;100046.34;;;;-51
2022/04/09 08:02:17;;;;;;;1.50;1.40;;;;;;;18.13;43.04;100053.30;;;;-51
2022/04/09 08:05:18;;;;;;;1.49;1.39;;;;;;;18.12;43.04;100051.13;;;;-51
2022/04/09 08:08:17;;;;;;;1.40;1.30;;;;;;;18.12;43.07;100053.39;;;;-51
2022/04/09 08:11:16;;;;;;;1.98;1.41;;;;;;;18.11;43.07;100055.40;;;;-51
2022/04/09 08:14:16;;;;;;;1.50;1.40;;;;;;;18.10;43.07;100060.83;;;;-52
2022/04/09 08:17:20;;;;;;;1.51;1.41;;;;;;;18.10;43.15;100062.70;;;;-50
2022/04/09 08:20:16;;;;;;;1.52;1.41;;;;;;;18.10;43.55;100064.08;;;;-50
2022/04/09 08:23:17;;;;;;;2.59;1.50;;;;;;;18.12;43.54;100065.88;;;;-52
2022/04/09 08:26:17;;;;;;;1.63;1.44;;;;;;;18.12;43.57;100063.28;;;;-52
2022/04/09 08:29:19;;;;;;;1.89;1.40;;;;;;;18.13;43.51;100067.48;;;;-50
2022/04/09 08:32:16;;;;;;;2.01;1.53;;;;;;;18.15;43.52;100068.55;;;;-54
2022/04/09 08:35:17;;;;;;;1.93;1.46;;;;;;;18.16;43.52;100071.81;;;;-53
2022/04/09 08:38:17;;;;;;;1.72;1.57;;;;;;;18.18;43.48;100065.64;;;;-53
2022/04/09 08:41:17;;;;;;;1.62;1.52;;;;;;;18.19;43.51;100063.71;;;;-56
2022/04/09 08:44:17;;;;;;;2.09;1.57;;;;;;;18.20;43.49;100072.66;;;;-55
2022/04/09 08:47:17;;;;;;;2.45;1.60;;;;;;;18.21;43.47;100078.56;;;;-51
2022/04/09 08:50:17;;;;;;;2.37;1.73;;;;;;;18.23;43.46;100078.02;;;;-56
2022/04/09 08:53:16;;;;;;;5.38;1.80;;;;;;;18.25;43.48;100072.27;;;;-51
2022/04/09 08:56:18;;;;;;;3.69;2.02;;;;;;;18.27;43.45;100074.95;;;;-51
2022/04/09 08:59:17;;;;;;;3.65;1.56;;;;;;;18.29;43.59;100076.09;;;;-51
2022/04/09 09:02:17;;;;;;;2.28;1.61;;;;;;;18.30;43.62;100079.60;;;;-52
2022/04/09 09:05:20;;;;;;;2.97;1.60;;;;;;;18.32;43.63;100077.18;;;;-50
2022/04/09 09:08:17;;;;;;;4.02;1.73;;;;;;;18.34;43.59;100076.44;;;;-52
2022/04/09 09:11:16;;;;;;;4.47;1.69;;;;;;;18.37;43.54;100081.83;;;;-52
2022/04/09 09:14:16;;;;;;;4.21;1.60;;;;;;;18.37;43.50;100088.06;;;;-53
2022/04/09 09:17:16;;;;;;;2.73;1.70;;;;;;;18.38;43.51;100098.60;;;;-52
2022/04/09 09:20:17;;;;;;;3.89;1.70;;;;;;;18.39;43.50;100101.30;;;;-57
2022/04/09 09:23:17;;;;;;;2.89;1.65;;;;;;;18.40;43.50;100103.23;;;;-56
2022/04/09 09:26:16;;;;;;;2.89;1.60;;;;;;;18.41;43.48;100106.08;;;;-60
2022/04/09 09:29:17;;;;;;;4.97;1.80;;;;;;;18.41;43.48;100108.34;;;;-56
2022/04/09 09:32:17;;;;;;;2.15;1.69;;;;;;;18.38;43.33;100110.28;;;;-53
2022/04/09 09:35:17;;;;;;;3.11;1.94;;;;;;;18.39;42.94;100118.26;;;;-59
2022/04/09 09:38:17;;;;;;;4.69;1.87;;;;;;;18.39;43.19;100117.52;;;;-51
2022/04/09 09:41:17;;;;;;;4.65;1.93;;;;;;;18.41;43.32;100118.89;;;;-54
2022/04/09 09:44:17;;;;;;;4.91;2.06;;;;;;;18.41;43.50;100123.38;;;;-53
2022/04/09 09:47:17;;;;;;;2.74;1.84;;;;;;;18.43;42.89;100127.17;;;;-57
2022/04/09 09:50:17;;;;;;;5.70;2.07;;;;;;;18.42;43.08;100124.59;;;;-54
2022/04/09 09:53:17;;;;;;;5.57;1.93;;;;;;;18.42;43.13;100132.78;;;;-53
2022/04/09 09:56:17;;;;;;;3.23;2.01;;;;;;;18.41;43.09;100128.09;;;;-53
2022/04/09 09:59:16;;;;;;;6.06;2.09;;;;;;;18.40;43.10;100133.34;;;;-54
2022/04/09 10:02:17;;;;;;;5.69;1.90;;;;;;;18.40;43.08;100141.13;;;;-52
2022/04/09 10:05:17;;;;;;;4.81;1.92;;;;;;;18.41;43.09;100140.74;;;;-60
2022/04/09 10:08:16;;;;;;;4.11;2.10;;;;;;;18.42;43.20;100136.76;;;;-59
2022/04/09 10:11:17;;;;;;;5.07;1.83;;;;;;;18.43;43.16;100145.70;;;;-52
2022/04/09 10:14:17;;;;;;;5.15;2.09;;;;;;;18.44;43.30;100140.73;;;;-48
2022/04/09 10:17:16;;;;;;;3.62;1.86;;;;;;;18.48;43.31;100144.17;;;;-52
2022/04/09 10:20:19;;;;;;;2.25;1.80;;;;;;;18.53;43.37;100146.66;;;;-56
2022/04/09 10:23:17;;;;;;;2.70;1.79;;;;;;;18.58;43.33;100144.55;;;;-54
2022/04/09 10:26:17;;;;;;;5.49;1.99;;;;;;;18.63;43.38;100141.56;;;;-54
2022/04/09 10:29:17;;;;;;;4.35;1.69;;;;;;;18.68;43.37;100144.53;;;;-57
2022/04/09 10:32:17;;;;;;;1.87;1.58;;;;;;;18.73;43.38;100143.32;;;;-53
2022/04/09 10:36:17;;;;;;;2.67;1.85;;;;;;;18.82;43.55;100145.90;;;;-52
2022/04/09 10:41:18;;;;;;;2.16;1.66;;;;;;;18.88;43.08;100142.83;;;;-53
2022/04/09 10:44:18;;;;;;;2.53;1.67;;;;;;;18.92;43.44;100142.36;;;;-52
2022/04/09 10:49:49;;;;;;;4.97;1.99;;;;;;;18.98;43.48;100146.94;;;;-49
2022/04/09 10:52:17;;;;;;;4.44;1.81;;;;;;;19.03;43.25;100137.80;;;;-53
2022/04/09 10:55:20;;;;;;;3.31;1.61;;;;;;;19.07;43.52;100147.84;;;;-54
2022/04/09 10:58:17;;;;;;;6.25;1.70;;;;;;;19.12;43.35;100145.44;;;;-60
2022/04/09 11:01:16;;;;;;;4.61;1.79;;;;;;;19.16;43.27;100144.23;;;;-60
2022/04/09 11:04:17;;;;;;;4.41;1.69;;;;;;;19.22;43.09;100146.70;;;;-47
2022/04/09 11:07:17;;;;;;;4.93;1.81;;;;;;;19.22;43.05;100142.70;;;;-48
2022/04/09 11:10:16;;;;;;;2.63;1.77;;;;;;;19.24;42.92;100140.11;;;;-48
2022/04/09 11:13:18;;;;;;;2.25;1.70;;;;;;;19.27;42.96;100140.34;;;;-47
2022/04/09 11:16:17;;;;;;;2.85;1.63;;;;;;;19.29;42.93;100144.09;;;;-52
2022/04/09 11:19:17;;;;;;;2.31;1.61;;;;;;;19.34;42.91;100139.66;;;;-51
2022/04/09 11:22:16;;;;;;;2.50;1.74;;;;;;;19.37;43.02;100145.49;;;;-46
2022/04/09 11:25:16;;;;;;;2.99;1.75;;;;;;;19.40;42.93;100146.54;;;;-47
2022/04/09 11:28:17;;;;;;;3.07;1.62;;;;;;;19.43;42.95;100143.23;;;;-47
2022/04/09 11:31:16;;;;;;;2.86;1.70;;;;;;;19.46;42.82;100148.10;;;;-46
2022/04/09 11:34:17;;;;;;;1.73;1.50;;;;;;;19.47;42.82;100146.16;;;;-47
2022/04/09 11:37:17;;;;;;;2.83;1.45;;;;;;;19.49;42.72;100143.48;;;;-50
2022/04/09 11:40:17;;;;;;;2.50;1.59;;;;;;;19.51;42.71;100145.11;;;;-59
2022/04/09 11:43:17;;;;;;;2.15;1.53;;;;;;;19.53;42.67;100140.73;;;;-58
2022/04/09 11:46:16;;;;;;;2.66;1.57;;;;;;;19.54;42.66;100139.98;;;;-51
2022/04/09 11:49:18;;;;;;;2.77;1.40;;;;;;;19.56;42.69;100144.94;;;;-61
2022/04/09 11:52:16;;;;;;;2.56;1.40;;;;;;;19.58;42.68;100145.69;;;;-51
2022/04/09 11:55:17;;;;;;;2.11;1.40;;;;;;;19.59;42.63;100151.45;;;;-46
2022/04/09 11:58:19;;;;;;;2.69;1.63;;;;;;;19.61;42.64;100151.70;;;;-47
2022/04/09 12:01:17;;;;;;;2.37;1.53;;;;;;;19.64;42.69;100148.37;;;;-48
2022/04/09 12:04:16;;;;;;;2.74;1.66;;;;;;;19.66;42.60;100150.56;;;;-47
2022/04/09 12:07:17;;;;;;;2.72;1.59;;;;;;;19.68;42.65;100156.02;;;;-48
2022/04/09 12:10:17;;;;;;;1.47;1.36;;;;;;;19.69;42.57;100149.34;;;;-51
2022/04/09 12:13:16;;;;;;;1.54;1.44;;;;;;;19.71;42.59;100151.97;;;;-50
2022/04/09 12:16:17;;;;;;;1.86;1.50;;;;;;;19.73;42.64;100150.19;;;;-46
2022/04/09 12:19:17;;;;;;;1.53;1.39;;;;;;;19.74;42.53;100154.19;;;;-46
2022/04/09 12:22:17;;;;;;;1.76;1.50;;;;;;;19.76;42.56;100149.88;;;;-46
2022/04/09 12:25:16;;;;;;;1.79;1.40;;;;;;;19.77;42.53;100148.81;;;;-51
2022/04/09 12:28:16;;;;;;;1.82;1.43;;;;;;;19.78;42.53;100147.84;;;;-51
2022/04/09 12:31:17;;;;;;;1.94;1.54;;;;;;;19.79;42.52;100144.17;;;;-51
2022/04/09 12:34:17;;;;;;;1.61;1.31;;;;;;;19.81;42.50;100145.56;;;;-51
2022/04/09 12:37:16;;;;;;;2.72;1.40;;;;;;;19.82;42.52;100137.11;;;;-51
2022/04/09 12:40:17;;;;;;;2.01;1.41;;;;;;;19.83;42.59;100138.23;;;;-52
2022/04/09 12:43:16;;;;;;;3.68;1.61;;;;;;;19.85;41.90;100143.85;;;;-55
2022/04/09 12:46:18;;;;;;;7.57;1.67;;;;;;;19.89;42.55;100144.02;;;;-57
2022/04/09 12:49:16;;;;;;;3.14;1.66;;;;;;;19.93;42.73;100132.78;;;;-58
2022/04/09 12:52:17;;;;;;;2.81;1.59;;;;;;;19.97;42.86;100137.91;;;;-52
2022/04/09 12:55:16;;;;;;;2.03;1.47;;;;;;;20.01;42.84;100143.59;;;;-53
2022/04/09 12:58:17;;;;;;;3.43;1.49;;;;;;;20.07;42.94;100140.34;;;;-52
2022/04/09 13:01:17;;;;;;;1.97;1.50;;;;;;;20.09;42.91;100137.58;;;;-53
2022/04/09 13:04:16;;;;;;;1.97;1.47;;;;;;;20.11;42.94;100130.81;;;;-53
2022/04/09 13:07:16;;;;;;;2.73;1.47;;;;;;;20.17;43.08;100129.89;;;;-57
2022/04/09 13:10:17;;;;;;;3.19;1.72;;;;;;;20.09;42.39;100127.32;;;;-56
2022/04/09 13:13:17;;;;;;;3.23;2.09;;;;;;;20.00;41.34;100131.22;;;;-59
2022/04/09 13:16:16;;;;;;;5.93;1.95;;;;;;;20.04;42.15;100128.13;;;;-57
2022/04/09 13:19:17;;;;;;;5.17;1.92;;;;;;;20.08;42.35;100122.84;;;;-57
2022/04/09 13:22:17;;;;;;;2.07;1.54;;;;;;;20.10;42.41;100127.23;;;;-55
2022/04/09 13:25:18;;;;;;;3.46;1.73;;;;;;;20.12;42.40;100119.42;;;;-57
2022/04/09 13:28:16;;;;;;;1.80;1.49;;;;;;;20.12;42.39;100127.06;;;;-54
2022/04/09 13:31:17;;;;;;;2.82;1.66;;;;;;;20.13;42.23;100128.86;;;;-53
2022/04/09 13:34:17;;;;;;;3.01;1.55;;;;;;;20.15;42.57;100127.55;;;;-58
2022/04/09 13:37:19;;;;;;;3.53;1.57;;;;;;;20.17;42.65;100127.38;;;;-54
2022/04/09 13:40:17;;;;;;;2.93;1.59;;;;;;;20.19;42.74;100127.69;;;;-52
2022/04/09 13:43:17;;;;;;;1.96;1.50;;;;;;;20.20;42.85;100124.94;;;;-51
2022/04/09 13:46:16;;;;;;;2.42;1.59;;;;;;;20.19;42.65;100119.83;;;;-51
2022/04/09 13:49:16;;;;;;;2.83;1.61;;;;;;;20.20;42.71;100116.31;;;;-52
2022/04/09 13:52:17;;;;;;;2.11;1.48;;;;;;;20.22;42.92;100110.61;;;;-56
2022/04/09 13:55:16;;;;;;;2.12;1.54;;;;;;;20.22;42.80;100106.13;;;;-49
2022/04/09 13:58:16;;;;;;;1.74;1.48;;;;;;;20.23;42.79;100102.06;;;;-52
2022/04/09 14:01:17;;;;;;;2.44;1.59;;;;;;;20.24;42.93;100108.08;;;;-57
2022/04/09 14:04:17;;;;;;;4.16;1.74;;;;;;;20.24;42.88;100105.80;;;;-53
2022/04/09 14:07:16;;;;;;;1.59;1.35;;;;;;;20.25;42.84;100101.09;;;;-53
2022/04/09 14:10:17;;;;;;;1.93;1.60;;;;;;;20.26;42.84;100100.11;;;;-57
2022/04/09 14:13:17;;;;;;;2.16;1.47;;;;;;;20.28;42.88;100097.91;;;;-55
2022/04/09 14:16:16;;;;;;;4.39;1.55;;;;;;;20.28;42.54;100099.95;;;;-58
2022/04/09 14:19:16;;;;;;;4.13;1.78;;;;;;;20.28;42.66;100097.82;;;;-54
2022/04/09 14:22:17;;;;;;;4.81;1.72;;;;;;;20.29;42.86;100105.13;;;;-57
2022/04/09 14:25:16;;;;;;;6.55;1.78;;;;;;;20.31;42.93;100106.44;;;;-62
2022/04/09 14:28:16;;;;;;;3.75;1.65;;;;;;;20.31;42.79;100106.36;;;;-60
2022/04/09 14:31:16;;;;;;;3.43;1.60;;;;;;;20.33;42.93;100104.47;;;;-58
2022/04/09 14:34:17;;;;;;;2.73;1.59;;;;;;;20.34;42.91;100106.13;;;;-59
2022/04/09 14:37:16;;;;;;;2.20;1.52;;;;;;;20.34;42.98;100105.37;;;;-57
2022/04/09 14:40:16;;;;;;;1.75;1.44;;;;;;;20.34;42.92;100103.59;;;;-61
2022/04/09 14:43:17;;;;;;;3.93;1.55;;;;;;;20.36;42.92;100100.23;;;;-52
2022/04/09 14:46:16;;;;;;;3.42;1.63;;;;;;;20.38;42.98;100099.50;;;;-62
2022/04/09 14:49:17;;;;;;;4.24;1.64;;;;;;;20.38;42.82;100100.33;;;;-57
2022/04/09 14:52:16;;;;;;;3.61;1.59;;;;;;;20.40;42.89;100103.31;;;;-53
2022/04/09 14:55:17;;;;;;;4.93;1.60;;;;;;;20.42;42.90;100104.71;;;;-52
2022/04/09 14:58:16;;;;;;;2.39;1.40;;;;;;;20.43;42.94;100100.38;;;;-53
2022/04/09 15:01:17;;;;;;;2.21;1.52;;;;;;;20.44;42.89;100103.15;;;;-59
2022/04/09 15:04:17;;;;;;;2.21;1.59;;;;;;;20.45;42.84;100105.17;;;;-54
2022/04/09 15:07:16;;;;;;;2.11;1.53;;;;;;;20.46;42.84;100103.88;;;;-57
2022/04/09 15:10:16;;;;;;;3.65;1.57;;;;;;;20.46;42.89;100104.28;;;;-54
2022/04/09 15:13:17;;;;;;;2.51;1.57;;;;;;;20.47;42.83;100107.52;;;;-53
2022/04/09 15:16:16;;;;;;;1.55;1.41;;;;;;;20.47;42.74;100109.41;;;;-52
2022/04/09 15:19:16;;;;;;;2.03;1.51;;;;;;;20.49;42.88;100114.13;;;;-49
2022/04/09 15:22:17;;;;;;;2.31;1.39;;;;;;;20.46;42.46;100114.05;;;;-54
2022/04/09 15:25:17;;;;;;;2.01;1.50;;;;;;;20.45;42.50;100119.50;;;;-53
2022/04/09 15:28:16;;;;;;;2.91;1.41;;;;;;;20.43;42.40;100121.53;;;;-53
2022/04/09 15:31:16;;;;;;;2.03;1.49;;;;;;;20.41;42.38;100123.18;;;;-53
2022/04/09 15:34:17;;;;;;;2.09;1.50;;;;;;;20.40;42.35;100130.19;;;;-53
2022/04/09 15:37:16;;;;;;;2.08;1.53;;;;;;;20.38;42.28;100131.25;;;;-53
2022/04/09 15:40:16;;;;;;;2.20;1.47;;;;;;;20.38;42.24;100135.05;;;;-52
2022/04/09 15:43:16;;;;;;;1.69;1.43;;;;;;;20.37;42.23;100142.22;;;;-51
2022/04/09 15:46:16;;;;;;;2.87;1.47;;;;;;;20.36;42.24;100135.73;;;;-53
2022/04/09 15:49:16;;;;;;;2.44;1.45;;;;;;;20.35;42.18;100132.22;;;;-57
2022/04/09 15:52:16;;;;;;;2.16;1.49;;;;;;;20.34;42.14;100129.47;;;;-58
2022/04/09 15:55:17;;;;;;;1.84;1.52;;;;;;;20.34;42.17;100134.76;;;;-59
2022/04/09 15:58:17;;;;;;;2.68;1.45;;;;;;;20.34;42.16;100145.50;;;;-60
2022/04/09 16:01:16;;;;;;;1.45;1.34;;;;;;;20.33;42.18;100141.43;;;;-60
2022/04/09 16:04:17;;;;;;;2.04;1.48;;;;;;;20.32;42.15;100144.94;;;;-59
2022/04/09 16:07:16;;;;;;;2.17;1.57;;;;;;;20.32;42.12;100151.04;;;;-60
2022/04/09 16:10:16;;;;;;;1.97;1.53;;;;;;;20.31;42.14;100150.46;;;;-57
2022/04/09 16:13:17;;;;;;;1.59;1.45;;;;;;;20.29;42.18;100142.59;;;;-57
2022/04/09 16:16:16;;;;;;;1.75;1.42;;;;;;;20.28;42.15;100145.02;;;;-51
2022/04/09 16:19:16;;;;;;;1.72;1.37;;;;;;;20.28;42.09;100143.88;;;;-51
2022/04/09 16:22:17;;;;;;;1.46;1.31;;;;;;;20.27;42.12;100144.27;;;;-57
2022/04/09 16:25:16;;;;;;;2.01;1.46;;;;;;;20.25;42.12;100152.74;;;;-53
2022/04/09 16:28:16;;;;;;;2.15;1.39;;;;;;;20.25;42.10;100157.14;;;;-56
2022/04/09 16:31:36;;;;;;;2.98;1.41;;;;;;;20.26;42.35;100159.59;;;;-49
2022/04/09 16:34:16;;;;;;;1.40;1.30;;;;;;;20.28;42.45;100159.51;;;;-54
2022/04/09 16:37:16;;;;;;;1.88;1.33;;;;;;;20.31;42.71;100159.73;;;;-53
2022/04/09 16:40:20;;;;;;;1.67;1.38;;;;;;;20.33;42.70;100170.23;;;;-55
2022/04/09 16:43:17;;;;;;;2.12;1.39;;;;;;;20.34;42.69;100170.25;;;;-59
2022/04/09 16:46:20;;;;;;;1.58;1.40;;;;;;;20.35;42.78;100177.95;;;;-57
2022/04/09 16:49:16;;;;;;;1.49;1.39;;;;;;;20.35;42.93;100173.73;;;;-48
2022/04/09 16:52:17;;;;;;;4.75;1.43;;;;;;;20.38;42.95;100186.84;;;;-57
2022/04/09 16:55:16;;;;;;;2.25;1.53;;;;;;;20.38;42.91;100186.76;;;;-57